Time;durP1;ratioP1;P1;durP2;ratioP2;P2;SDS_P1;SDS_P2;PMS_P1;PMS_P2;Temp;Humidity;BMP_temperature;BMP_pressure;BME280_temperature;BME280_humidity;BME280_pressure;Samples;Min_cycle;Max_cycle;Signal;HPM_P1;HPM_P2
2024/04/15 00:01:00;;;;;;;;;2.25;1.25;;;;;13.86;53.34;101259.88;5464934;25;43959;-50
2024/04/15 00:03:25;;;;;;;;;2.50;1.00;;;;;13.86;53.51;101274.78;5465172;25;47795;-49
2024/04/15 00:05:51;;;;;;;;;1.75;1.75;;;;;13.80;53.45;101270.59;5455580;25;72913;-47
2024/04/15 00:08:16;;;;;;;;;3.50;1.00;;;;;13.76;53.35;101258.44;5461616;26;65723;-51
2024/04/15 00:10:41;;;;;;;;;3.00;1.00;;;;;13.75;52.92;101258.50;5453947;25;69059;-53
2024/04/15 00:13:07;;;;;;;;;4.00;1.25;;;;;13.76;52.71;101254.97;5463902;26;46492;-47
2024/04/15 00:15:32;;;;;;;;;2.00;0.00;;;;;13.76;53.41;101260.22;5463191;25;72127;-52
2024/04/15 00:17:57;;;;;;;;;4.25;1.50;;;;;13.74;53.05;101257.66;5452222;25;68269;-51
2024/04/15 00:20:23;;;;;;;;;2.25;1.00;;;;;13.74;53.13;101248.88;5437747;26;64355;-54
2024/04/15 00:22:48;;;;;;;;;2.25;2.00;;;;;13.75;53.98;101242.72;5464330;25;44806;-54
2024/04/15 00:25:13;;;;;;;;;1.00;0.00;;;;;13.75;54.03;101245.34;5463358;25;53362;-50
2024/04/15 00:27:39;;;;;;;;;2.00;1.00;;;;;13.72;53.21;101237.53;5428452;25;43881;-49
2024/04/15 00:30:05;;;;;;;;;2.75;2.00;;;;;13.72;53.50;101241.03;5431133;26;69095;-50
2024/04/15 00:32:31;;;;;;;;;1.00;1.00;;;;;13.73;53.22;101241.91;5458231;26;44101;-51
2024/04/15 00:34:56;;;;;;;;;3.00;2.00;;;;;13.70;53.28;101242.00;5443235;25;71999;-50
2024/04/15 00:37:21;;;;;;;;;1.25;1.25;;;;;13.70;53.56;101240.22;5464996;25;44091;-49
2024/04/15 00:39:46;;;;;;;;;2.00;1.50;;;;;13.70;53.65;101249.88;5463804;25;60356;-48
2024/04/15 00:42:12;;;;;;;;;1.00;1.00;;;;;13.72;53.46;101245.44;5450769;25;73873;-50
2024/04/15 00:44:37;;;;;;;;;2.00;1.00;;;;;13.76;53.66;101244.44;5438177;25;60352;-52
2024/04/15 00:47:03;;;;;;;;;2.00;1.00;;;;;13.76;54.23;101240.03;5460301;26;60134;-51
2024/04/15 00:49:32;;;;;;;;;1.75;1.00;;;;;13.77;53.42;101236.47;5465378;25;43801;-49
2024/04/15 00:51:58;;;;;;;;;2.00;1.00;;;;;13.80;53.46;101232.91;5465252;26;44918;-50
2024/04/15 00:54:24;;;;;;;;;3.00;2.00;;;;;13.82;54.00;101231.94;5449100;25;43732;-49
2024/04/15 00:56:49;;;;;;;;;3.25;1.25;;;;;13.80;53.88;101225.88;5456869;26;43791;-50
2024/04/15 00:59:15;;;;;;;;;2.00;1.00;;;;;13.79;53.41;101221.53;5442307;25;69412;-51
2024/04/15 01:01:40;;;;;;;;;1.50;1.00;;;;;13.76;53.63;101219.00;5455401;26;65662;-52
2024/04/15 01:04:06;;;;;;;;;4.00;1.50;;;;;13.71;52.78;101218.28;5463029;25;70591;-51
2024/04/15 01:06:31;;;;;;;;;1.25;1.00;;;;;13.65;53.52;101202.69;5451745;26;68242;-46
2024/04/15 01:08:56;;;;;;;;;5.50;1.00;;;;;13.64;53.42;101198.34;5465377;25;73066;-50
2024/04/15 01:11:22;;;;;;;;;1.00;1.00;;;;;13.56;53.20;101195.09;5449437;25;74152;-48
2024/04/15 01:13:47;;;;;;;;;4.50;3.25;;;;;13.48;53.63;101208.50;5466486;25;71888;-50
2024/04/15 01:16:12;;;;;;;;;1.75;0.50;;;;;13.41;53.54;101207.81;5465455;25;69297;-52
2024/04/15 01:18:37;;;;;;;;;3.50;1.25;;;;;13.39;53.35;101199.13;5462662;26;73242;-51
2024/04/15 01:21:03;;;;;;;;;2.50;1.75;;;;;13.34;53.53;101197.56;5466252;25;44722;-46
2024/04/15 01:23:37;;;;;;;;;6.00;1.00;;;;;13.28;53.88;101190.69;5464094;26;69529;-50
2024/04/15 01:26:03;;;;;;;;;1.00;1.00;;;;;13.27;54.50;101197.69;5466216;25;44008;-51
2024/04/15 01:28:28;;;;;;;;;1.50;1.50;;;;;13.26;53.90;101203.88;5463437;26;71552;-48
2024/04/15 01:30:53;;;;;;;;;5.25;2.25;;;;;13.21;54.04;101202.28;5465347;25;75238;-51
2024/04/15 01:33:19;;;;;;;;;2.50;1.00;;;;;13.15;54.04;101198.06;5437751;26;70806;-46
2024/04/15 01:35:44;;;;;;;;;4.75;1.00;;;;;13.06;53.84;101198.34;5454053;25;46665;-50
2024/04/15 01:38:10;;;;;;;;;3.00;1.00;;;;;12.92;53.67;101188.25;5434766;26;43867;-49
2024/04/15 01:40:35;;;;;;;;;2.00;1.50;;;;;12.85;53.90;101184.09;5461800;25;44657;-49
2024/04/15 01:43:00;;;;;;;;;1.50;1.00;;;;;12.76;54.03;101185.22;5442100;25;68667;-48
2024/04/15 01:45:25;;;;;;;;;5.00;1.00;;;;;12.72;53.89;101180.97;5464050;25;43941;-52
2024/04/15 01:47:51;;;;;;;;;1.50;1.00;;;;;12.68;53.97;101182.81;5465377;25;67793;-50
2024/04/15 01:50:18;;;;;;;;;2.00;1.50;;;;;12.66;54.38;101186.38;5428278;26;66668;-49
2024/04/15 01:52:43;;;;;;;;;2.00;1.00;;;;;12.64;54.06;101193.44;5466759;26;43753;-47
2024/04/15 01:55:09;;;;;;;;;0.00;0.00;;;;;12.60;53.98;101187.41;5458783;25;43900;-49
2024/04/15 01:57:35;;;;;;;;;3.00;2.00;;;;;12.54;54.06;101193.69;5463967;26;43734;-52
2024/04/15 02:00:03;;;;;;;;;0.75;0.75;;;;;12.51;53.93;101195.56;5494337;25;45710;-50
2024/04/15 02:02:28;;;;;;;;;6.00;1.00;;;;;12.40;54.17;101192.38;5466186;25;47580;-47
2024/04/15 02:04:53;;;;;;;;;3.25;1.00;;;;;12.33;53.71;101196.91;5465202;25;68189;-49
2024/04/15 02:07:19;;;;;;;;;1.00;1.00;;;;;12.29;54.13;101190.03;5440151;26;63558;-51
2024/04/15 02:09:44;;;;;;;;;1.75;1.00;;;;;12.17;54.35;101190.38;5437826;26;46253;-52
2024/04/15 02:12:09;;;;;;;;;2.00;1.00;;;;;12.15;54.66;101191.25;5455132;26;70768;-51
2024/04/15 02:14:35;;;;;;;;;1.75;1.75;;;;;12.10;54.90;101187.88;5465480;25;62453;-52
2024/04/15 02:17:00;;;;;;;;;1.00;1.00;;;;;12.05;55.14;101181.88;5465694;25;70708;-49
2024/04/15 02:19:26;;;;;;;;;2.75;1.00;;;;;11.99;55.22;101178.56;5465669;25;74245;-52
2024/04/15 02:21:51;;;;;;;;;2.25;1.00;;;;;11.95;55.93;101173.41;5466104;25;44393;-51
2024/04/15 02:24:17;;;;;;;;;2.00;1.00;;;;;11.93;55.88;101176.97;5465652;25;43889;-51
2024/04/15 02:26:42;;;;;;;;;1.00;1.00;;;;;11.92;56.21;101170.88;5460830;25;43954;-49
2024/04/15 02:29:07;;;;;;;;;1.25;1.25;;;;;11.92;56.60;101175.25;5464811;25;75251;-49
2024/04/15 02:31:33;;;;;;;;;1.25;1.25;;;;;11.92;56.56;101170.00;5465840;25;44924;-52
2024/04/15 02:33:58;;;;;;;;;2.50;1.00;;;;;11.94;56.57;101169.06;5435981;25;43761;-51
2024/04/15 02:36:23;;;;;;;;;2.75;2.00;;;;;11.94;57.03;101155.94;5466651;25;43842;-50
2024/04/15 02:38:49;;;;;;;;;3.25;1.00;;;;;11.96;57.02;101154.13;5463429;26;70400;-49
2024/04/15 02:41:15;;;;;;;;;3.00;1.75;;;;;11.96;56.97;101141.03;5464649;26;43970;-49
2024/04/15 02:43:40;;;;;;;;;2.75;1.25;;;;;11.97;57.27;101139.28;5432854;25;44036;-49
2024/04/15 02:46:05;;;;;;;;;4.75;1.25;;;;;11.95;57.40;101149.81;5462789;25;60946;-50
2024/04/15 02:48:31;;;;;;;;;5.25;2.00;;;;;11.93;57.80;101154.25;5468997;25;73994;-52
2024/04/15 02:50:56;;;;;;;;;2.75;1.50;;;;;11.95;58.06;101146.31;5466622;25;43818;-50
2024/04/15 02:53:22;;;;;;;;;3.50;0.25;;;;;11.96;58.16;101151.50;5465941;25;56720;-49
2024/04/15 02:55:50;;;;;;;;;3.25;2.00;;;;;11.97;58.07;101147.16;5443914;25;66433;-51
2024/04/15 02:58:15;;;;;;;;;4.50;2.00;;;;;11.99;58.47;101141.84;5466746;25;45697;-49
2024/04/15 03:00:41;;;;;;;;;3.00;1.00;;;;;12.02;58.49;101147.88;5466530;25;43933;-51
2024/04/15 03:03:06;;;;;;;;;2.50;1.00;;;;;12.02;59.02;101149.63;5463680;26;66735;-51
2024/04/15 03:05:33;;;;;;;;;4.25;1.25;;;;;12.06;58.64;101149.53;5464752;25;71793;-51
2024/04/15 03:07:58;;;;;;;;;1.00;1.00;;;;;12.12;58.92;101145.88;5463896;26;45331;-50
2024/04/15 03:10:25;;;;;;;;;3.50;1.00;;;;;12.20;58.93;101151.78;5471984;25;74128;-52
2024/04/15 03:12:54;;;;;;;;;1.50;1.00;;;;;12.25;59.13;101154.25;5460038;26;43784;-52
2024/04/15 03:15:20;;;;;;;;;1.00;1.00;;;;;12.28;59.43;101155.03;5465143;25;43856;-49
2024/04/15 03:17:48;;;;;;;;;1.50;1.00;;;;;12.35;59.50;101171.50;5459316;25;44655;-49
2024/04/15 03:20:14;;;;;;;;;4.00;1.00;;;;;12.39;59.58;101156.50;5465820;25;43721;-51
2024/04/15 03:22:39;;;;;;;;;2.00;1.00;;;;;12.39;59.39;101148.63;5465848;25;43857;-52
2024/04/15 03:25:04;;;;;;;;;2.00;1.00;;;;;12.39;59.36;101144.25;5463581;25;72959;-50
2024/04/15 03:27:30;;;;;;;;;3.00;1.00;;;;;12.39;59.61;101149.50;5410062;26;44709;-48
2024/04/15 03:29:55;;;;;;;;;1.00;1.00;;;;;12.39;59.08;101149.50;5428682;26;70866;-49
2024/04/15 03:32:20;;;;;;;;;3.50;1.00;;;;;12.31;59.29;101139.22;5449171;26;67116;-49
2024/04/15 03:34:46;;;;;;;;;2.50;0.25;;;;;12.28;59.56;101141.06;5443238;25;44064;-52
2024/04/15 03:37:11;;;;;;;;;4.00;1.00;;;;;12.20;59.51;101135.16;5464231;26;73891;-49
2024/04/15 03:39:36;;;;;;;;;2.00;1.00;;;;;12.20;59.69;101145.66;5464384;25;70721;-48
2024/04/15 03:42:02;;;;;;;;;6.75;1.00;;;;;12.13;59.80;101153.69;5453676;26;43700;-50
2024/04/15 03:44:27;;;;;;;;;2.00;2.00;;;;;12.09;60.38;101152.06;5436893;25;70833;-49
2024/04/15 03:46:52;;;;;;;;;4.75;2.00;;;;;12.08;60.16;101149.50;5442969;25;44741;-49
2024/04/15 03:49:18;;;;;;;;;2.00;0.00;;;;;12.05;60.57;101134.66;5442645;26;44014;-47
2024/04/15 03:51:43;;;;;;;;;3.00;1.75;;;;;12.02;61.03;101124.25;5436567;26;69176;-53
2024/04/15 03:54:08;;;;;;;;;2.00;1.00;;;;;11.99;60.64;101124.34;5463809;25;72112;-52
2024/04/15 03:56:34;;;;;;;;;3.00;1.00;;;;;11.94;60.93;101123.63;5436869;25;69018;-46
2024/04/15 03:58:59;;;;;;;;;2.25;2.00;;;;;11.87;60.84;101122.88;5464588;25;71197;-48
2024/04/15 04:01:24;;;;;;;;;7.25;2.50;;;;;11.77;60.80;101119.66;5463868;25;66759;-52
2024/04/15 04:03:49;;;;;;;;;3.25;1.25;;;;;11.67;61.63;101109.41;5463915;25;73004;-48
2024/04/15 04:06:15;;;;;;;;;2.50;1.00;;;;;11.58;61.69;101107.91;5455215;25;54262;-51
2024/04/15 04:08:40;;;;;;;;;2.25;2.00;;;;;11.49;61.84;101106.38;5464339;25;69149;-52
2024/04/15 04:11:06;;;;;;;;;3.75;1.50;;;;;11.43;62.00;101113.53;5430574;26;43737;-49
2024/04/15 04:13:34;;;;;;;;;4.00;1.25;;;;;11.39;61.67;101097.88;5463103;26;44052;-50
2024/04/15 04:15:59;;;;;;;;;2.25;1.75;;;;;11.34;62.83;101098.88;5455335;25;44882;-48
2024/04/15 04:18:25;;;;;;;;;2.75;1.00;;;;;11.37;62.31;101109.28;5460771;26;43827;-50
2024/04/15 04:20:50;;;;;;;;;1.00;1.00;;;;;11.33;62.85;101105.00;5463979;25;66892;-46
2024/04/15 04:23:16;;;;;;;;;5.25;2.00;;;;;11.29;62.71;101104.22;5466509;25;44037;-49
2024/04/15 04:25:41;;;;;;;;;2.00;1.25;;;;;11.26;62.81;101100.81;5460905;25;68141;-47
2024/04/15 04:28:06;;;;;;;;;2.75;1.00;;;;;11.23;62.63;101101.75;5456665;26;60548;-49
2024/04/15 04:30:35;;;;;;;;;3.00;1.00;;;;;11.19;62.69;101107.94;5466543;25;68372;-46
2024/04/15 04:33:02;;;;;;;;;2.25;2.00;;;;;11.15;62.82;101104.53;5444780;26;71888;-48
2024/04/15 04:35:28;;;;;;;;;4.00;2.00;;;;;11.15;63.15;101112.41;5456348;25;45082;-46
2024/04/15 04:37:54;;;;;;;;;2.75;1.00;;;;;11.17;64.22;101120.22;5465142;26;46488;-52
2024/04/15 04:40:19;;;;;;;;;6.25;2.00;;;;;11.20;63.27;101122.78;5467360;25;43728;-51
2024/04/15 04:42:45;;;;;;;;;2.75;2.00;;;;;11.20;63.63;101102.69;5465451;25;68191;-50
2024/04/15 04:45:10;;;;;;;;;1.75;1.00;;;;;11.17;63.79;101094.03;5457451;25;56082;-48
2024/04/15 04:47:35;;;;;;;;;2.50;1.00;;;;;11.17;63.66;101096.66;5444787;26;61068;-49
2024/04/15 04:50:00;;;;;;;;;4.00;1.00;;;;;11.17;63.85;101099.28;5466628;25;69082;-50
2024/04/15 04:52:26;;;;;;;;;3.50;1.50;;;;;11.16;63.95;101089.72;5465943;25;70580;-50
2024/04/15 04:54:51;;;;;;;;;1.00;1.00;;;;;11.16;63.09;101090.56;5458504;25;74127;-49
2024/04/15 04:57:17;;;;;;;;;4.50;1.00;;;;;11.14;63.74;101086.28;5440613;26;72158;-51
2024/04/15 04:59:42;;;;;;;;;4.00;1.00;;;;;11.12;64.05;101086.31;5467247;25;43798;-53
2024/04/15 05:02:10;;;;;;;;;1.00;1.00;;;;;11.11;63.79;101083.72;5466208;25;62942;-49
2024/04/15 05:04:35;;;;;;;;;4.00;1.00;;;;;11.09;63.51;101070.66;5443906;25;43909;-50
2024/04/15 05:07:00;;;;;;;;;2.00;2.00;;;;;11.08;63.94;101087.25;5435517;26;54166;-48
2024/04/15 05:09:26;;;;;;;;;4.50;0.75;;;;;11.06;63.25;101086.44;5453824;25;43972;-46
2024/04/15 05:11:51;;;;;;;;;0.75;0.75;;;;;11.02;63.64;101085.66;5466068;25;72011;-49
2024/04/15 05:14:16;;;;;;;;;1.50;1.00;;;;;11.04;64.08;101085.63;5493425;25;73665;-49
2024/04/15 05:16:42;;;;;;;;;2.00;0.25;;;;;11.04;63.75;101072.50;5448588;25;73034;-54
2024/04/15 05:19:08;;;;;;;;;1.25;0.00;;;;;11.07;63.76;101067.22;5436467;26;66979;-49
2024/04/15 05:21:34;;;;;;;;;2.00;0.50;;;;;11.09;63.96;101067.19;5430579;26;43792;-51
2024/04/15 05:23:59;;;;;;;;;4.25;1.00;;;;;11.06;64.30;101062.88;5463584;25;44657;-49
2024/04/15 05:26:25;;;;;;;;;2.00;1.00;;;;;11.03;64.03;101062.97;5448435;25;43926;-48
2024/04/15 05:28:50;;;;;;;;;4.75;1.00;;;;;11.02;64.49;101061.22;5462401;26;43888;-49
2024/04/15 05:31:15;;;;;;;;;3.25;2.00;;;;;11.01;63.98;101055.13;5456077;25;71611;-54
2024/04/15 05:33:41;;;;;;;;;3.00;2.00;;;;;10.99;64.02;101056.03;5461891;26;72940;-47
2024/04/15 05:36:06;;;;;;;;;2.50;1.25;;;;;11.00;64.66;101055.16;5463503;25;43912;-47
2024/04/15 05:38:32;;;;;;;;;1.25;1.00;;;;;10.99;64.51;101063.91;5466530;25;55147;-47
2024/04/15 05:40:57;;;;;;;;;4.75;1.50;;;;;10.99;65.12;101071.75;5466193;25;70693;-51
2024/04/15 05:43:23;;;;;;;;;4.75;1.25;;;;;11.01;64.88;101069.97;5459072;25;59952;-52
2024/04/15 05:45:48;;;;;;;;;4.00;2.00;;;;;11.03;64.13;101070.81;5446645;25;44376;-50
2024/04/15 05:48:13;;;;;;;;;3.00;1.75;;;;;11.04;64.89;101071.66;5449547;26;67193;-49
2024/04/15 05:50:39;;;;;;;;;3.25;2.00;;;;;11.04;64.43;101069.91;5467392;25;44107;-50
2024/04/15 05:53:04;;;;;;;;;3.50;2.00;;;;;11.07;64.89;101066.38;5466241;25;45717;-46
2024/04/15 05:55:30;;;;;;;;;8.00;2.00;;;;;11.07;64.74;101064.59;5449268;25;72724;-47
2024/04/15 05:57:55;;;;;;;;;1.00;1.00;;;;;11.08;64.47;101066.28;5444245;26;43954;-50
2024/04/15 06:00:21;;;;;;;;;3.50;1.00;;;;;11.11;65.09;101063.63;5441210;25;61419;-52
2024/04/15 06:02:46;;;;;;;;;3.25;1.00;;;;;11.11;64.71;101074.09;5437096;26;54786;-49
2024/04/15 06:05:12;;;;;;;;;1.50;1.50;;;;;11.10;65.31;101076.75;5453997;25;43887;-52
2024/04/15 06:07:37;;;;;;;;;2.25;1.00;;;;;11.10;64.68;101079.38;5438980;26;43922;-52
2024/04/15 06:10:03;;;;;;;;;1.00;1.00;;;;;11.11;65.31;101071.47;5450765;25;70836;-47
2024/04/15 06:12:31;;;;;;;;;3.25;1.00;;;;;11.14;64.92;101067.94;5432540;26;45808;-51
2024/04/15 06:14:57;;;;;;;;;4.75;2.00;;;;;11.16;65.26;101064.38;5445049;25;44009;-52
2024/04/15 06:17:22;;;;;;;;;5.50;2.00;;;;;11.19;65.36;101066.91;5442725;26;43999;-49
2024/04/15 06:19:48;;;;;;;;;2.00;2.00;;;;;11.21;64.63;101065.13;5464119;26;43817;-53
2024/04/15 06:22:13;;;;;;;;;2.00;1.25;;;;;11.24;64.52;101066.78;5466189;26;44848;-51
2024/04/15 06:24:38;;;;;;;;;6.50;2.75;;;;;11.25;64.48;101071.16;5464424;25;47175;-51
2024/04/15 06:27:04;;;;;;;;;4.00;2.00;;;;;11.25;64.37;101079.00;5438689;25;68247;-50
2024/04/15 06:29:29;;;;;;;;;6.75;3.75;;;;;11.29;64.40;101074.56;5465893;26;44112;-47
2024/04/15 06:31:55;;;;;;;;;3.25;2.00;;;;;11.30;64.37;101076.28;5465102;25;70529;-46
2024/04/15 06:34:21;;;;;;;;;3.50;1.50;;;;;11.29;64.08;101088.50;5464174;25;69731;-51
2024/04/15 06:36:47;;;;;;;;;5.50;2.00;;;;;11.28;63.80;101089.41;5449541;26;43909;-49
2024/04/15 06:39:14;;;;;;;;;1.25;1.25;;;;;11.31;64.38;101093.72;5459639;26;43833;-52
2024/04/15 06:41:39;;;;;;;;;4.00;1.50;;;;;11.31;64.49;101089.31;5461851;25;45282;-50
2024/04/15 06:44:05;;;;;;;;;1.00;1.00;;;;;11.36;63.82;101078.75;5455856;25;43935;-54
2024/04/15 06:46:31;;;;;;;;;3.50;1.00;;;;;11.39;63.58;101074.28;5428891;26;44036;-51
2024/04/15 06:48:56;;;;;;;;;1.00;0.75;;;;;11.41;63.63;101071.63;5438507;26;43886;-51
2024/04/15 06:51:22;;;;;;;;;3.00;1.75;;;;;11.38;63.96;101062.09;5457254;26;44164;-51
2024/04/15 06:53:47;;;;;;;;;0.00;0.00;;;;;11.35;63.71;101059.53;5464822;25;43944;-52
2024/04/15 06:56:13;;;;;;;;;1.00;1.00;;;;;11.38;63.70;101055.97;5436088;25;69388;-48
2024/04/15 06:58:38;;;;;;;;;3.75;0.50;;;;;11.37;63.88;101043.78;5447532;26;70273;-50
2024/04/15 07:01:03;;;;;;;;;2.50;1.75;;;;;11.39;63.61;101042.00;5463731;26;43894;-47
2024/04/15 07:03:29;;;;;;;;;3.50;1.00;;;;;11.42;63.29;101030.56;5457302;26;63704;-54
2024/04/15 07:05:54;;;;;;;;;3.00;1.00;;;;;11.43;63.82;101029.66;5432537;25;69292;-51
2024/04/15 07:08:19;;;;;;;;;1.75;0.75;;;;;11.43;63.75;101020.03;5441437;26;65234;-50
2024/04/15 07:10:45;;;;;;;;;5.50;1.50;;;;;11.48;63.55;101025.16;5438419;25;59023;-47
2024/04/15 07:13:10;;;;;;;;;2.00;1.00;;;;;11.52;63.46;101022.41;5439673;26;43943;-46
2024/04/15 07:15:36;;;;;;;;;2.00;1.00;;;;;11.52;62.85;101029.41;5462344;25;44075;-46
2024/04/15 07:18:02;;;;;;;;;2.50;0.75;;;;;11.54;62.64;101028.50;5434419;25;70543;-51
2024/04/15 07:20:27;;;;;;;;;3.50;1.00;;;;;11.55;62.77;101016.25;5437079;26;45139;-49
2024/04/15 07:22:52;;;;;;;;;4.75;1.75;;;;;11.57;62.79;101004.81;5443209;26;43825;-52
2024/04/15 07:25:18;;;;;;;;;2.00;2.00;;;;;11.63;62.54;101009.00;5462809;25;49717;-50
2024/04/15 07:27:44;;;;;;;;;5.50;1.00;;;;;11.70;62.71;100999.22;5431304;26;44314;-50
2024/04/15 07:30:09;;;;;;;;;1.00;1.00;;;;;11.76;62.11;101001.69;5463287;26;44602;-48
2024/04/15 07:32:35;;;;;;;;;4.00;0.00;;;;;11.85;61.91;100993.56;5462849;26;62252;-50
2024/04/15 07:35:00;;;;;;;;;1.25;1.25;;;;;11.92;61.48;100982.03;5463336;25;45071;-50
2024/04/15 07:37:25;;;;;;;;;5.00;0.00;;;;;11.97;61.39;100987.16;5410042;26;65517;-50
2024/04/15 07:39:51;;;;;;;;;3.00;0.25;;;;;12.01;61.19;100987.94;5459322;26;60110;-49
2024/04/15 07:42:17;;;;;;;;;3.00;1.25;;;;;12.08;60.92;100982.44;5451592;25;72702;-52
2024/04/15 07:44:45;;;;;;;;;4.00;0.75;;;;;12.16;60.52;100982.22;5457439;25;43806;-49
2024/04/15 07:47:11;;;;;;;;;4.00;2.00;;;;;12.22;60.09;100984.66;5429710;26;43894;-49
2024/04/15 07:49:36;;;;;;;;;2.50;1.00;;;;;12.26;59.71;100993.31;5456490;26;75290;-52
2024/04/15 07:52:02;;;;;;;;;1.50;1.25;;;;;12.32;59.45;100986.13;5463657;26;43881;-47
2024/04/15 07:54:27;;;;;;;;;1.00;0.50;;;;;12.38;59.22;100997.31;5463595;25;43969;-48
2024/04/15 07:56:53;;;;;;;;;3.00;1.50;;;;;12.38;58.83;100997.31;5427573;26;43777;-50
2024/04/15 07:59:19;;;;;;;;;1.00;1.00;;;;;12.38;58.33;100990.31;5451698;26;43833;-47
2024/04/15 08:01:44;;;;;;;;;3.00;0.00;;;;;12.43;58.36;100987.53;5464485;25;64277;-50
2024/04/15 08:04:09;;;;;;;;;3.00;1.00;;;;;12.42;57.77;100983.19;5456835;25;45601;-48
2024/04/15 08:06:35;;;;;;;;;1.50;0.25;;;;;12.42;58.00;100986.69;5464894;26;44051;-47
2024/04/15 08:09:00;;;;;;;;;1.75;0.75;;;;;12.44;57.35;100979.59;5464175;25;74313;-50
2024/04/15 08:11:25;;;;;;;;;1.50;0.00;;;;;12.47;57.21;100987.41;5428669;26;55505;-47
2024/04/15 08:13:51;;;;;;;;;1.00;1.00;;;;;12.48;56.85;100977.75;5450356;26;43872;-46
2024/04/15 08:16:16;;;;;;;;;2.00;1.00;;;;;12.51;56.73;100977.66;5450413;26;61672;-50
2024/04/15 08:18:42;;;;;;;;;2.00;1.00;;;;;12.50;56.18;100982.06;5440545;26;44725;-53
2024/04/15 08:21:07;;;;;;;;;1.00;0.00;;;;;12.53;55.93;100971.44;5486682;25;57941;-52
2024/04/15 08:23:32;;;;;;;;;0.75;0.00;;;;;12.52;55.86;100971.53;5449505;26;43969;-49
2024/04/15 08:25:58;;;;;;;;;2.75;0.50;;;;;12.49;55.36;100961.09;5452082;26;43815;-50
2024/04/15 08:28:24;;;;;;;;;2.00;0.00;;;;;12.53;55.26;100955.69;5433818;26;75161;-49
2024/04/15 08:30:50;;;;;;;;;0.00;0.00;;;;;12.61;55.01;100954.63;5464721;25;43812;-50
2024/04/15 08:33:15;;;;;;;;;2.00;0.00;;;;;12.70;55.07;100960.41;5444272;26;44132;-45
2024/04/15 08:35:41;;;;;;;;;1.00;0.00;;;;;12.87;54.90;100944.13;5451369;25;43997;-47
2024/04/15 08:38:07;;;;;;;;;2.25;1.00;;;;;13.09;54.76;100952.13;5428439;26;45464;-49
2024/04/15 08:40:33;;;;;;;;;0.50;0.25;;;;;13.32;54.70;100944.41;5461535;26;68696;-48
2024/04/15 08:43:01;;;;;;;;;2.50;1.00;;;;;13.49;54.22;100947.28;5441311;25;44108;-47
2024/04/15 08:45:27;;;;;;;;;2.00;1.00;;;;;13.69;54.19;100930.78;5450801;25;44095;-47
2024/04/15 08:47:56;;;;;;;;;3.00;0.50;;;;;13.81;53.59;100935.59;5425348;26;73991;-51
2024/04/15 08:50:23;;;;;;;;;0.75;0.25;;;;;13.90;53.09;100931.78;5461867;26;44350;-48
2024/04/15 08:52:53;;;;;;;;;3.50;1.00;;;;;13.98;52.71;100924.44;5464265;25;43892;-47
2024/04/15 08:55:19;;;;;;;;;2.00;1.00;;;;;14.03;52.92;100919.00;5448748;25;43879;-49
2024/04/15 08:57:46;;;;;;;;;0.50;0.00;;;;;14.11;52.82;100911.69;5427453;26;44062;-49
2024/04/15 09:00:12;;;;;;;;;1.75;1.00;;;;;14.21;52.04;100912.16;5457698;26;44224;-48
2024/04/15 09:02:38;;;;;;;;;3.00;1.00;;;;;14.25;52.53;100903.22;5435064;26;43835;-51
2024/04/15 09:05:03;;;;;;;;;1.00;1.00;;;;;14.26;52.08;100907.56;5452604;26;44004;-46
2024/04/15 09:07:29;;;;;;;;;0.75;0.75;;;;;14.22;51.80;100904.22;5437289;25;44749;-46
2024/04/15 09:09:54;;;;;;;;;5.00;1.75;;;;;14.28;51.82;100913.63;5440194;26;71536;-46
2024/04/15 09:12:19;;;;;;;;;2.00;1.00;;;;;14.38;52.09;100912.34;5431091;26;43813;-50
2024/04/15 09:14:45;;;;;;;;;2.50;1.00;;;;;14.49;51.53;100918.97;5450450;25;73042;-50
2024/04/15 09:17:11;;;;;;;;;4.00;0.00;;;;;14.60;51.44;100914.16;5441362;25;63925;-50
2024/04/15 09:19:40;;;;;;;;;0.50;0.00;;;;;14.64;50.61;100914.88;5448952;26;43750;-51
2024/04/15 09:22:05;;;;;;;;;4.50;1.00;;;;;14.63;50.26;100908.75;5467330;25;44276;-51
2024/04/15 09:24:31;;;;;;;;;0.50;0.50;;;;;14.67;50.38;100912.13;5457819;25;72403;-50
2024/04/15 09:26:56;;;;;;;;;1.00;0.50;;;;;14.67;50.26;100910.34;5455878;26;70585;-51
2024/04/15 09:29:21;;;;;;;;;2.00;1.00;;;;;14.68;50.40;100887.47;5466750;25;63950;-53
2024/04/15 09:31:47;;;;;;;;;1.50;0.00;;;;;14.64;51.26;100881.47;5465950;25;68340;-48
2024/04/15 09:34:14;;;;;;;;;3.00;1.00;;;;;14.61;50.59;100877.22;5461624;25;44104;-52
2024/04/15 09:36:42;;;;;;;;;2.25;0.75;;;;;14.57;50.92;100864.19;5451036;25;45812;-49
2024/04/15 09:39:07;;;;;;;;;1.00;1.00;;;;;14.54;50.65;100861.69;5439975;26;46210;-49
2024/04/15 09:41:34;;;;;;;;;2.00;2.00;;;;;14.48;50.90;100854.03;5493486;25;44026;-51
2024/04/15 09:43:59;;;;;;;;;2.00;1.00;;;;;14.50;50.94;100845.19;5437116;25;53120;-51
2024/04/15 09:46:29;;;;;;;;;1.00;1.00;;;;;14.54;50.42;100846.75;5439665;25;46797;-53
2024/04/15 09:48:55;;;;;;;;;0.50;0.00;;;;;14.73;50.78;100838.09;5435272;26;43755;-49
2024/04/15 09:51:22;;;;;;;;;2.00;1.00;;;;;14.75;49.91;100830.97;5466967;25;44270;-50
2024/04/15 09:53:51;;;;;;;;;1.00;0.00;;;;;14.64;49.21;100830.59;5466798;25;43838;-49
2024/04/15 09:56:26;;;;;;;;;1.00;0.75;;;;;14.59;49.83;100836.06;5436816;26;44713;-48
2024/04/15 09:58:56;;;;;;;;;2.25;1.00;;;;;14.58;49.19;100826.44;5445298;26;43933;-49
2024/04/15 10:01:30;;;;;;;;;1.50;0.25;;;;;14.73;49.75;100817.03;5466817;25;43717;-49
2024/04/15 10:03:58;;;;;;;;;2.50;1.00;;;;;14.85;50.48;100811.22;5464876;25;43769;-51
2024/04/15 10:06:30;;;;;;;;;0.50;0.50;;;;;14.87;49.45;100806.72;5432253;25;44846;-48
2024/04/15 10:08:57;;;;;;;;;5.00;0.00;;;;;14.76;49.13;100782.66;5439708;26;44205;-51
2024/04/15 10:11:22;;;;;;;;;2.00;0.00;;;;;14.78;48.54;100765.00;5429212;26;43831;-50
2024/04/15 10:13:48;;;;;;;;;0.50;0.50;;;;;14.97;48.95;100768.50;5446292;26;70711;-50
2024/04/15 10:16:19;;;;;;;;;3.00;1.00;;;;;15.16;48.33;100759.78;5420435;26;69858;-48
2024/04/15 10:18:58;;;;;;;;;2.50;1.50;;;;;15.22;48.28;100753.38;5446713;26;43858;-51
2024/04/15 10:21:23;;;;;;;;;1.25;0.00;;;;;15.18;48.34;100745.59;5465925;25;44255;-51
2024/04/15 10:23:49;;;;;;;;;0.00;0.00;;;;;15.12;48.49;100739.75;5437105;26;70660;-50
2024/04/15 10:26:14;;;;;;;;;4.25;1.00;;;;;15.20;48.07;100727.09;5450002;25;43992;-51
2024/04/15 10:28:40;;;;;;;;;1.75;0.00;;;;;15.24;47.56;100735.72;5429075;26;43949;-51
2024/04/15 10:31:05;;;;;;;;;1.00;1.00;;;;;15.32;48.13;100738.84;5462742;26;43868;-50
2024/04/15 10:33:30;;;;;;;;;2.50;2.00;;;;;15.50;47.70;100737.13;5466556;26;43841;-52
2024/04/15 10:35:56;;;;;;;;;4.75;2.00;;;;;15.61;48.46;100739.25;5449780;25;45131;-51
2024/04/15 10:38:26;;;;;;;;;1.00;1.00;;;;;15.62;47.63;100726.00;5428462;26;72919;-50
2024/04/15 10:40:52;;;;;;;;;1.00;1.00;;;;;15.66;47.92;100708.22;5457977;26;43990;-53
2024/04/15 10:43:21;;;;;;;;;3.25;1.75;;;;;15.78;47.59;100697.09;5437963;25;43704;-50
2024/04/15 10:45:47;;;;;;;;;4.00;2.00;;;;;15.89;46.90;100686.88;5441657;25;45594;-53
2024/04/15 10:48:13;;;;;;;;;1.75;0.50;;;;;16.09;46.95;100680.56;5430430;26;44026;-52
2024/04/15 10:50:39;;;;;;;;;4.25;1.50;;;;;16.29;46.33;100684.84;5455852;26;43894;-50
2024/04/15 10:53:04;;;;;;;;;3.50;2.00;;;;;16.34;45.91;100684.59;5465841;25;43833;-49
2024/04/15 10:55:30;;;;;;;;;1.75;1.00;;;;;16.36;45.53;100669.53;5447674;25;59036;-48
2024/04/15 10:57:56;;;;;;;;;2.75;2.00;;;;;16.50;46.28;100669.66;5429367;26;43776;-53
2024/04/15 11:00:23;;;;;;;;;3.50;1.75;;;;;16.65;45.98;100672.44;5449314;26;62438;-51
2024/04/15 11:02:53;;;;;;;;;3.00;2.00;;;;;16.78;44.57;100659.41;5466727;25;43866;-47
2024/04/15 11:05:19;;;;;;;;;2.25;1.00;;;;;16.78;45.26;100647.03;5447869;25;44794;-47
2024/04/15 11:07:47;;;;;;;;;2.25;0.00;;;;;16.76;45.66;100645.41;5429751;26;43854;-48
2024/04/15 11:10:13;;;;;;;;;1.75;1.25;;;;;16.61;44.91;100655.88;5457254;26;43976;-49
2024/04/15 11:12:38;;;;;;;;;0.75;0.00;;;;;16.43;44.80;100646.28;5465902;25;48494;-47
2024/04/15 11:15:08;;;;;;;;;4.00;0.75;;;;;16.26;45.50;100628.69;5465211;25;45213;-48
2024/04/15 11:17:35;;;;;;;;;6.00;2.00;;;;;16.09;45.35;100633.03;5433657;25;44288;-48